Terminal Aerodrome Forecast
Issued by NWS

Home | Current Version | Previous Version | Graphics & Text | Print | Product List | Glossary On
Versions: 1 2 3 4 5 6 7 8 9 10 11 12 13 14 15 16 17 18 19 20 21 22 23 24 25 26 27 28 29 30 31 32 33 34
000
FTUS43 KLOT 201100
TAFMDW
TAF
KMDW 201134Z 2012/2112 21011G18KT P6SM BKN035
     FM201400 23013G22KT P6SM SCT040 BKN120
     FM201700 22013G18KT P6SM VCSH SCT040 BKN100
      TEMPO 2018/2021 5SM -TSRA SCT015 BKN040CB
     FM210000 27010KT P6SM SCT040 BKN070
     FM210800 29012G17KT P6SM FEW030=

USA.gov is the U.S. government's official web portal to all federal, state and local government web resources and services.